Time;durP1;ratioP1;P1;durP2;ratioP2;P2;SDS_P1;SDS_P2;PMS_P1;PMS_P2;Temp;Humidity;BMP_temperature;BMP_pressure;BME280_temperature;BME280_humidity;BME280_pressure;Samples;Min_cycle;Max_cycle;Signal;HPM_P1;HPM_P2
2021/03/09 05:31:45;;;;;;;;;;;;;;;4.77;49.27;100885.59;5296801;27;20032;-84
2021/03/09 05:34:11;;;;;;;;;;;;;;;4.92;49.35;100879.88;5280257;27;19972;-85
2021/03/09 05:36:37;;;;;;;;;;;;;;;4.94;49.29;100873.00;5282540;27;19996;-86
2021/03/09 05:39:04;;;;;;;;;;;;;;;4.56;50.67;100874.63;5283025;27;19957;-86
2021/03/09 05:41:30;;;;;;;;;;;;;;;4.62;49.26;100877.41;5282930;27;19972;-85
2021/03/09 05:43:56;;;;;;;;;;;;;;;4.73;48.71;100886.34;5302619;27;20014;-85
2021/03/09 05:46:22;;;;;;;;;;;;;;;4.54;50.60;100889.31;5283104;27;19978;-86
2021/03/09 05:48:49;;;;;;;;;;;;;;;4.61;49.88;100896.44;5302871;27;19964;-86
2021/03/09 05:51:16;;;;;;;;;;;;;;;4.98;49.13;100889.56;5302723;27;20021;-86
2021/03/09 05:53:42;;;;;;;;;;;;;;;4.93;49.26;100891.19;5283141;27;19975;-85
2021/03/09 05:56:08;;;;;;;;;;;;;;;5.03;47.94;100887.97;5301759;27;19961;-86
2021/03/09 05:58:35;;;;;;;;;;;;;;;3.79;50.48;100888.09;5281791;27;20307;-85
2021/03/09 07:28:00;;;;;;;;;;;;;;;5.61;49.48;100930.12;5269472;27;19942;-90
2021/03/09 07:59:30;;;;;;;;;;;;;;;4.93;52.44;100935.44;5292506;26;19957;-90
2021/03/09 08:01:55;;;;;;;;;;;;;;;5.13;52.08;100941.16;5308358;27;19956;-85
2021/03/09 08:04:21;;;;;;;;;;;;;;;5.25;51.97;100936.25;5288763;27;19980;-88
2021/03/09 08:06:46;;;;;;;;;;;;;;;5.21;52.95;100935.31;5292768;27;19965;-89
2021/03/09 08:09:31;;;;;;;;;;;;;;;5.05;53.11;100927.94;5311617;27;19983;-90
2021/03/09 08:11:56;;;;;;;;;;;;;;;5.42;51.60;100928.84;5290607;27;20662;-88
2021/03/09 08:14:22;;;;;;;;;;;;;;;5.37;51.01;100922.63;5310079;27;19977;-87
2021/03/09 11:27:16;;;;;;;;;;;;;;;8.16;35.62;100808.19;5310599;26;20011;-85
2021/03/09 11:30:03;;;;;;;;;;;;;;;8.54;34.93;100814.72;5312212;27;20031;-86
2021/03/09 11:32:34;;;;;;;;;;;;;;;8.20;34.86;100809.09;5291092;27;19961;-85
2021/03/09 11:35:16;;;;;;;;;;;;;;;7.80;36.43;100806.03;5310165;27;19969;-85
2021/03/09 11:37:43;;;;;;;;;;;;;;;7.80;34.99;100813.91;5287642;27;20000;-85
2021/03/09 11:40:13;;;;;;;;;;;;;;;7.87;35.46;100804.38;5290788;27;20624;-87
2021/03/09 11:42:44;;;;;;;;;;;;;;;8.71;33.08;100789.53;5295867;27;19948;-90
2021/03/09 11:45:32;;;;;;;;;;;;;;;9.67;32.53;100781.34;5296198;27;19965;-86
2021/03/09 11:48:04;;;;;;;;;;;;;;;8.44;33.79;100773.56;5297608;27;19940;-87
2021/03/09 11:50:37;;;;;;;;;;;;;;;8.94;34.01;100776.63;5294216;27;19945;-86
2021/03/09 11:53:05;;;;;;;;;;;;;;;8.66;33.18;100769.41;5294527;27;19975;-86
2021/03/09 11:56:10;;;;;;;;;;;;;;;8.43;34.79;100777.06;5299010;27;19972;-87
2021/03/09 11:58:38;;;;;;;;;;;;;;;9.09;33.33;100758.34;5314990;27;19949;-86
2021/03/09 12:01:07;;;;;;;;;;;;;;;8.78;33.14;100759.03;5315209;27;19975;-86
2021/03/09 12:03:40;;;;;;;;;;;;;;;9.37;32.80;100755.00;5296444;27;19937;-86
2021/03/09 12:06:07;;;;;;;;;;;;;;;8.83;34.23;100762.56;5296748;27;19948;-87
2021/03/09 12:08:41;;;;;;;;;;;;;;;8.90;33.25;100747.75;5314202;27;20198;-87
2021/03/09 12:11:10;;;;;;;;;;;;;;;8.63;32.85;100755.41;5294093;27;20040;-87
2021/03/09 12:13:47;;;;;;;;;;;;;;;7.95;34.27;100751.28;5297953;27;19962;-87
2021/03/09 12:16:29;;;;;;;;;;;;;;;7.87;34.02;100749.44;5294527;27;19981;-85
2021/03/09 12:18:56;;;;;;;;;;;;;;;8.18;33.36;100750.62;5292769;27;19949;-86
2021/03/09 12:21:26;;;;;;;;;;;;;;;9.01;32.09;100740.84;5312151;27;19937;-85
2021/03/09 12:24:07;;;;;;;;;;;;;;;8.60;35.29;100738.81;5273501;27;19951;-86
2021/03/09 12:26:46;;;;;;;;;;;;;;;9.31;31.63;100740.12;5310980;27;20056;-87
2021/03/09 12:29:18;;;;;;;;;;;;;;;8.26;33.26;100745.44;5271933;27;19988;-87
2021/03/09 12:31:46;;;;;;;;;;;;;;;8.12;33.71;100745.34;5287287;27;19981;-87
2021/03/09 12:34:19;;;;;;;;;;;;;;;9.15;32.06;100731.31;5293603;27;19945;-87
2021/03/09 12:37:07;;;;;;;;;;;;;;;9.34;32.02;100729.63;5278352;27;19952;-87
2021/03/09 12:39:36;;;;;;;;;;;;;;;8.44;33.56;100722.06;5276215;27;19981;-88
2021/03/09 12:42:07;;;;;;;;;;;;;;;9.31;31.85;100720.00;5294480;27;19979;-88
2021/03/09 12:44:38;;;;;;;;;;;;;;;8.51;33.01;100720.41;5275452;27;20020;-88
2021/03/09 12:47:31;;;;;;;;;;;;;;;8.50;32.98;100714.28;5278200;27;19949;-87
2021/03/09 12:50:26;;;;;;;;;;;;;;;8.46;33.07;100711.63;5294880;27;20023;-88
2021/03/09 12:52:53;;;;;;;;;;;;;;;8.68;32.86;100705.69;5292473;27;19957;-87
2021/03/09 12:55:23;;;;;;;;;;;;;;;8.49;32.69;100703.78;5274543;27;19944;-86
2021/03/09 12:57:50;;;;;;;;;;;;;;;8.61;32.40;100707.38;5293477;27;19942;-91
2021/03/09 13:00:27;;;;;;;;;;;;;;;8.93;32.92;100695.34;5293344;27;19986;-90
2021/03/09 13:03:36;;;;;;;;;;;;;;;8.23;33.16;100698.31;5250357;27;19998;-90
2021/03/09 13:06:26;;;;;;;;;;;;;;;7.22;36.13;100698.13;5209548;27;19947;-88
2021/03/09 13:09:13;;;;;;;;;;;;;;;7.59;35.98;100690.69;5248608;27;19950;-86
2021/03/09 13:11:59;;;;;;;;;;;;;;;7.13;35.16;100691.03;5244491;27;20005;-87
2021/03/09 13:14:26;;;;;;;;;;;;;;;7.39;34.93;100693.97;5231402;27;19966;-87
2021/03/09 13:17:33;;;;;;;;;;;;;;;7.25;35.16;100693.81;5250214;27;19945;-86
2021/03/09 13:20:28;;;;;;;;;;;;;;;6.99;35.46;100687.38;5234740;27;19988;-86
2021/03/09 13:22:56;;;;;;;;;;;;;;;8.05;34.71;100672.84;5231761;27;19946;-87
2021/03/09 13:25:36;;;;;;;;;;;;;;;8.49;32.81;100661.88;5246134;27;19970;-87
2021/03/09 13:28:16;;;;;;;;;;;;;;;8.43;33.02;100652.25;5243590;27;19942;-87
2021/03/09 13:30:43;;;;;;;;;;;;;;;7.82;34.40;100660.44;5248801;27;19977;-91
2021/03/09 13:33:28;;;;;;;;;;;;;;;7.37;34.21;100666.06;5251099;27;19973;-89
2021/03/09 13:36:19;;;;;;;;;;;;;;;7.95;33.22;100659.69;5250711;27;19938;-87
2021/03/09 13:39:19;;;;;;;;;;;;;;;7.90;33.48;100653.53;5248133;27;19958;-90
2021/03/09 14:07:08;;;;;;;;;;;;;;;8.28;33.91;100642.50;5307410;27;20024;-90
2021/03/09 14:09:54;;;;;;;;;;;;;;;7.81;33.03;100647.34;5309782;27;19951;-88
2021/03/09 14:12:41;;;;;;;;;;;;;;;8.35;32.87;100635.56;5316175;27;19961;-87
2021/03/09 14:15:27;;;;;;;;;;;;;;;7.78;33.72;100637.72;5291779;27;20318;-89
2021/03/09 14:17:53;;;;;;;;;;;;;;;8.52;32.45;100631.34;5282618;27;19980;-87
2021/03/09 14:20:22;;;;;;;;;;;;;;;7.64;33.66;100629.75;5305821;27;19973;-87
2021/03/09 14:23:07;;;;;;;;;;;;;;;7.44;33.60;100628.66;5295059;27;20033;-88
2021/03/09 14:25:36;;;;;;;;;;;;;;;8.03;32.67;100630.09;5289444;27;19947;-87
2021/03/09 14:28:09;;;;;;;;;;;;;;;8.09;32.60;100625.81;5285148;27;20639;-86
2021/03/09 14:30:38;;;;;;;;;;;;;;;7.31;34.13;100626.78;5283359;27;19941;-86
2021/03/09 14:33:05;;;;;;;;;;;;;;;7.72;33.88;100624.59;5289916;27;19969;-87
2021/03/09 14:35:39;;;;;;;;;;;;;;;7.62;32.99;100621.03;5288635;27;19971;-86
2021/03/09 14:38:05;;;;;;;;;;;;;;;7.62;33.35;100622.78;5308014;27;19945;-85
2021/03/09 14:40:33;;;;;;;;;;;;;;;7.58;33.57;100611.38;5306761;27;19995;-86
2021/03/09 14:43:29;;;;;;;;;;;;;;;7.86;32.52;100611.66;5314930;27;19937;-87
2021/03/09 14:51:15;;;;;;;;;;;;;;;7.65;33.97;100612.34;5299888;26;20021;-86
2021/03/09 14:54:03;;;;;;;;;;;;;;;7.07;33.94;100612.59;5295757;27;19989;-86
2021/03/09 14:56:40;;;;;;;;;;;;;;;7.63;33.22;100600.97;5313143;27;19960;-85
2021/03/09 14:59:46;;;;;;;;;;;;;;;7.18;33.93;100604.88;5306140;27;20007;-85
2021/03/09 15:02:19;;;;;;;;;;;;;;;7.08;34.76;100608.22;5316059;27;19956;-86
2021/03/09 15:05:06;;;;;;;;;;;;;;;7.71;34.92;100601.94;5294167;27;20026;-86
2021/03/09 15:07:35;;;;;;;;;;;;;;;7.09;33.83;100605.66;5293908;27;19975;-87
2021/03/09 15:10:10;;;;;;;;;;;;;;;7.56;33.44;100599.16;5314970;27;20014;-87
2021/03/09 15:12:38;;;;;;;;;;;;;;;7.83;33.25;100594.19;5295627;27;19979;-87
2021/03/09 15:15:05;;;;;;;;;;;;;;;6.67;34.84;100596.41;5290595;27;19965;-87
2021/03/09 15:17:36;;;;;;;;;;;;;;;6.91;35.08;100593.25;5311382;27;19985;-88
2021/03/09 15:20:20;;;;;;;;;;;;;;;7.11;34.89;100587.34;5314519;27;19946;-88
2021/03/09 15:23:29;;;;;;;;;;;;;;;7.46;34.39;100588.59;5310489;27;19965;-87
2021/03/09 15:26:06;;;;;;;;;;;;;;;7.42;33.36;100592.06;5282288;27;20350;-88
2021/03/09 15:28:44;;;;;;;;;;;;;;;7.00;34.10;100588.12;5291546;27;19974;-88
2021/03/09 15:31:16;;;;;;;;;;;;;;;7.43;34.71;100585.97;5294878;27;19941;-88
2021/03/09 15:33:54;;;;;;;;;;;;;;;7.12;34.55;100595.22;5310533;27;19948;-87
2021/03/09 15:36:20;;;;;;;;;;;;;;;7.41;33.21;100586.78;5293750;27;19974;-87
2021/03/09 15:38:49;;;;;;;;;;;;;;;7.38;33.75;100577.22;5294197;27;19944;-88
2021/03/09 15:41:43;;;;;;;;;;;;;;;6.26;36.22;100588.00;5292512;27;19969;-87
2021/03/09 15:44:12;;;;;;;;;;;;;;;6.81;34.99;100593.97;5289510;27;19944;-87
2021/03/09 15:46:41;;;;;;;;;;;;;;;7.35;33.67;100584.12;5311126;27;19944;-87
2021/03/09 15:49:08;;;;;;;;;;;;;;;6.44;35.77;100593.50;5287978;27;19975;-88
2021/03/09 15:52:01;;;;;;;;;;;;;;;7.03;34.41;100593.37;5313385;27;19941;-88
2021/03/09 15:54:43;;;;;;;;;;;;;;;7.13;33.75;100581.28;5310014;27;19973;-87
2021/03/09 15:57:31;;;;;;;;;;;;;;;6.85;34.00;100593.13;5296967;27;19996;-87
2021/03/09 16:00:35;;;;;;;;;;;;;;;7.02;34.15;100590.75;5296890;27;19961;-88
2021/03/09 16:03:28;;;;;;;;;;;;;;;6.99;34.34;100588.97;5314327;27;19979;-87
2021/03/09 16:06:30;;;;;;;;;;;;;;;6.76;34.44;100591.28;5299223;27;19945;-86
2021/03/09 16:09:27;;;;;;;;;;;;;;;7.17;33.53;100593.53;5297157;27;19937;-89
2021/03/09 16:13:08;;;;;;;;;;;;;;;7.03;34.40;100597.75;5299338;27;19948;-88
2021/03/09 16:15:52;;;;;;;;;;;;;;;6.99;35.40;100591.56;5296219;27;19971;-90
2021/03/09 16:18:28;;;;;;;;;;;;;;;6.65;35.29;100592.00;5294220;27;19984;-89
2021/03/09 16:21:21;;;;;;;;;;;;;;;7.32;34.60;100586.72;5307804;27;20007;-91
2021/03/09 16:24:11;;;;;;;;;;;;;;;7.12;34.98;100594.31;5315155;27;19938;-88
2021/03/09 16:27:04;;;;;;;;;;;;;;;6.77;35.72;100597.41;5301809;27;19953;-91
2021/03/09 16:29:51;;;;;;;;;;;;;;;7.00;35.77;100593.34;5279309;27;19993;-90
2021/03/09 16:32:19;;;;;;;;;;;;;;;6.41;36.74;100597.78;5282982;27;19991;-90
2021/03/09 16:34:53;;;;;;;;;;;;;;;6.20;37.08;100604.44;5283951;27;19953;-89
2021/03/09 16:37:22;;;;;;;;;;;;;;;6.61;36.41;100598.94;5282257;27;19973;-89
2021/03/09 16:39:48;;;;;;;;;;;;;;;6.91;36.75;100601.09;5285277;27;19985;-90
2021/03/09 16:42:35;;;;;;;;;;;;;;;7.15;36.63;100597.00;5293883;27;19945;-89
2021/03/09 16:45:08;;;;;;;;;;;;;;;6.50;37.29;100604.03;5287991;27;20512;-85
2021/03/09 16:47:37;;;;;;;;;;;;;;;6.30;37.66;100601.12;5290372;27;19969;-86
2021/03/09 16:50:23;;;;;;;;;;;;;;;6.45;37.89;100607.41;5293566;27;19960;-85
2021/03/09 16:52:51;;;;;;;;;;;;;;;6.21;38.67;100605.34;5287680;27;19938;-85
2021/03/09 16:55:25;;;;;;;;;;;;;;;6.43;37.95;100596.94;5289178;27;19953;-86
2021/03/09 16:57:53;;;;;;;;;;;;;;;7.15;37.09;100597.88;5271888;27;20597;-86
2021/03/09 17:00:33;;;;;;;;;;;;;;;6.23;38.58;100612.28;5290094;27;19979;-89
2021/03/09 17:03:05;;;;;;;;;;;;;;;6.75;37.89;100610.44;5290001;27;19968;-86
2021/03/09 17:05:36;;;;;;;;;;;;;;;7.02;36.74;100612.50;5288638;27;19940;-86
2021/03/09 17:08:11;;;;;;;;;;;;;;;6.96;36.49;100611.56;5288087;27;19972;-86
2021/03/09 17:10:38;;;;;;;;;;;;;;;7.12;36.43;100610.00;5285886;27;19980;-86
2021/03/09 17:13:27;;;;;;;;;;;;;;;6.68;37.28;100607.75;5288656;27;19948;-86
2021/03/09 17:16:17;;;;;;;;;;;;;;;6.77;37.46;100613.97;5287986;27;19942;-87
2021/03/09 17:18:43;;;;;;;;;;;;;;;6.86;37.47;100618.41;5288325;27;20001;-86
2021/03/09 17:21:10;;;;;;;;;;;;;;;6.55;37.88;100620.59;5288479;27;19973;-86
2021/03/09 17:23:39;;;;;;;;;;;;;;;6.57;37.95;100621.50;5291093;27;19964;-86
2021/03/09 17:26:28;;;;;;;;;;;;;;;6.71;37.94;100618.22;5289421;27;20368;-85
2021/03/09 17:28:58;;;;;;;;;;;;;;;6.53;37.87;100630.16;5289275;27;19946;-86
2021/03/09 17:31:27;;;;;;;;;;;;;;;6.77;37.49;100626.13;5234186;27;1491765;-85
2021/03/09 17:34:00;;;;;;;;;;;;;;;6.99;37.28;100629.87;5281396;27;19973;-85
2021/03/09 17:36:31;;;;;;;;;;;;;;;6.59;37.39;100632.88;5290386;27;19953;-85
2021/03/09 17:39:05;;;;;;;;;;;;;;;6.65;37.32;100634.69;5271195;27;19945;-87
2021/03/09 17:41:55;;;;;;;;;;;;;;;6.90;36.99;100635.00;5291454;27;19949;-86
2021/03/09 17:44:28;;;;;;;;;;;;;;;6.32;38.22;100629.84;5290956;27;19953;-85
2021/03/09 17:46:56;;;;;;;;;;;;;;;6.78;37.38;100631.38;5290880;27;20527;-87
2021/03/09 17:49:33;;;;;;;;;;;;;;;6.91;37.09;100634.13;5291049;27;19941;-87
2021/03/09 17:52:16;;;;;;;;;;;;;;;6.46;38.21;100638.75;5289565;27;19942;-87
2021/03/09 17:54:47;;;;;;;;;;;;;;;7.04;37.02;100643.91;5290194;27;19940;-86
2021/03/09 17:57:20;;;;;;;;;;;;;;;6.30;38.22;100637.66;5290784;27;20009;-88
2021/03/09 17:59:51;;;;;;;;;;;;;;;6.53;37.33;100640.63;5290991;27;19980;-86
2021/03/09 18:02:20;;;;;;;;;;;;;;;7.61;35.68;100631.47;5290629;27;19961;-85
2021/03/09 18:05:09;;;;;;;;;;;;;;;7.27;36.03;100641.56;5291287;27;19953;-85
2021/03/09 18:07:40;;;;;;;;;;;;;;;7.56;35.34;100646.22;5291675;27;19940;-86
2021/03/09 18:10:09;;;;;;;;;;;;;;;7.33;35.76;100638.16;5274551;27;19981;-86
2021/03/09 18:12:48;;;;;;;;;;;;;;;7.44;35.48;100640.03;5292617;27;19942;-86
2021/03/09 18:15:21;;;;;;;;;;;;;;;7.19;36.17;100648.44;5292885;27;19973;-86
2021/03/09 18:18:01;;;;;;;;;;;;;;;7.28;35.88;100646.78;5293238;27;19952;-86
2021/03/09 18:20:57;;;;;;;;;;;;;;;7.63;35.85;100651.53;5291756;27;19957;-86
2021/03/09 18:23:33;;;;;;;;;;;;;;;6.77;36.61;100653.13;5293170;27;20032;-86
2021/03/09 18:26:06;;;;;;;;;;;;;;;6.82;36.79;100654.06;5274578;27;20315;-86
2021/03/09 18:28:58;;;;;;;;;;;;;;;6.44;37.49;100656.12;5292092;27;19954;-86
2021/03/09 18:31:35;;;;;;;;;;;;;;;7.12;35.99;100655.31;5292979;27;19941;-86
2021/03/09 18:34:18;;;;;;;;;;;;;;;7.09;36.33;100657.00;5292086;27;19953;-86
2021/03/09 18:37:00;;;;;;;;;;;;;;;6.87;37.28;100659.34;5291376;27;19967;-86
2021/03/09 18:39:29;;;;;;;;;;;;;;;6.91;36.65;100653.31;5291569;27;19953;-87
2021/03/09 18:42:06;;;;;;;;;;;;;;;6.70;36.73;100663.44;5291556;27;19968;-86
2021/03/09 18:44:40;;;;;;;;;;;;;;;6.15;38.21;100660.91;5292282;27;19977;-87
2021/03/09 18:47:16;;;;;;;;;;;;;;;6.37;38.24;100659.50;5290837;27;19950;-86
2021/03/09 18:50:13;;;;;;;;;;;;;;;6.98;37.09;100662.97;5292411;27;19938;-88
2021/03/09 18:52:45;;;;;;;;;;;;;;;6.59;37.48;100665.94;5281609;27;19946;-87
2021/03/09 18:55:18;;;;;;;;;;;;;;;7.07;36.43;100661.34;5293517;27;19987;-87
2021/03/09 18:58:06;;;;;;;;;;;;;;;6.73;37.63;100668.72;5275696;27;19948;-87
2021/03/09 19:00:42;;;;;;;;;;;;;;;6.81;37.08;100661.88;5293118;27;19937;-89
2021/03/09 19:03:45;;;;;;;;;;;;;;;6.36;37.76;100662.97;5260026;27;19953;-88
2021/03/09 19:06:27;;;;;;;;;;;;;;;7.03;36.99;100666.53;5290807;27;19986;-87
2021/03/09 19:09:22;;;;;;;;;;;;;;;7.47;35.77;100657.44;5264809;27;19953;-87
2021/03/09 19:12:07;;;;;;;;;;;;;;;7.71;35.43;100662.09;5294995;27;19944;-87
2021/03/09 19:15:07;;;;;;;;;;;;;;;7.78;35.43;100656.03;5294762;27;20045;-86
2021/03/09 19:17:42;;;;;;;;;;;;;;;8.17;34.81;100657.25;5260362;27;20667;-88
2021/03/09 19:20:49;;;;;;;;;;;;;;;8.11;34.55;100655.47;5293701;27;19972;-87
2021/03/09 19:23:29;;;;;;;;;;;;;;;8.14;35.29;100657.22;5276999;27;19968;-87
2021/03/09 19:26:13;;;;;;;;;;;;;;;8.30;35.36;100663.47;5275691;27;20017;-86
2021/03/09 19:29:39;;;;;;;;;;;;;;;8.51;34.99;100661.03;5278245;27;19945;-88
2021/03/09 19:32:19;;;;;;;;;;;;;;;8.55;34.93;100659.31;5275147;27;19937;-88
2021/03/09 19:35:24;;;;;;;;;;;;;;;8.67;35.33;100661.13;5293127;27;19975;-88
2021/03/09 19:38:30;;;;;;;;;;;;;;;8.73;35.25;100664.66;5294002;27;19946;-88
2021/03/09 19:41:01;;;;;;;;;;;;;;;8.78;35.13;100659.47;5294301;27;20095;-89
2021/03/09 19:43:42;;;;;;;;;;;;;;;8.87;34.66;100655.13;5294269;27;19977;-89
2021/03/09 19:46:28;;;;;;;;;;;;;;;8.85;34.42;100651.66;5294352;27;19938;-87
2021/03/09 19:49:14;;;;;;;;;;;;;;;8.81;34.21;100660.34;5281191;27;19952;-87
2021/03/09 19:52:00;;;;;;;;;;;;;;;8.88;34.11;100666.47;5296961;27;19945;-88
2021/03/09 19:55:05;;;;;;;;;;;;;;;8.69;34.78;100668.13;5314414;27;19957;-86
2021/03/09 19:57:52;;;;;;;;;;;;;;;8.93;34.22;100666.53;5297693;27;19937;-87
2021/03/09 20:00:47;;;;;;;;;;;;;;;9.04;33.68;100659.59;5316877;27;19945;-88
2021/03/09 20:03:38;;;;;;;;;;;;;;;9.12;33.62;100655.28;5299422;27;19951;-85
2021/03/09 20:06:27;;;;;;;;;;;;;;;9.04;34.18;100659.59;5299036;27;19985;-87
2021/03/09 20:09:06;;;;;;;;;;;;;;;8.94;35.04;100663.94;5297674;27;19942;-86
2021/03/09 20:11:43;;;;;;;;;;;;;;;8.99;34.96;100669.19;5315183;27;19985;-85
2021/03/09 20:14:17;;;;;;;;;;;;;;;9.06;34.03;100655.25;5314089;27;19956;-86
2021/03/09 20:17:19;;;;;;;;;;;;;;;8.83;35.01;100663.87;5300162;27;20013;-87
2021/03/09 20:19:53;;;;;;;;;;;;;;;8.79;34.78;100658.59;5315342;27;19967;-86
2021/03/09 20:22:38;;;;;;;;;;;;;;;8.44;35.11;100656.59;5283781;27;19941;-86
2021/03/09 20:25:34;;;;;;;;;;;;;;;8.68;34.59;100657.63;5293785;27;19971;-86
2021/03/09 20:28:25;;;;;;;;;;;;;;;8.64;35.05;100655.00;5298300;27;19945;-87
2021/03/09 20:31:45;;;;;;;;;;;;;;;8.79;35.63;100659.44;5301958;27;19945;-86
2021/03/09 20:34:29;;;;;;;;;;;;;;;8.83;36.05;100661.25;5315914;27;19945;-86
2021/03/09 20:37:27;;;;;;;;;;;;;;;8.44;37.11;100658.34;5315240;27;19996;-86
2021/03/09 20:40:15;;;;;;;;;;;;;;;8.48;36.32;100654.91;5298258;27;19960;-86
2021/03/09 20:43:02;;;;;;;;;;;;;;;8.52;35.94;100659.28;5314603;27;19961;-86
2021/03/09 20:45:31;;;;;;;;;;;;;;;8.19;37.47;100655.53;5294887;27;19993;-87
2021/03/09 20:48:01;;;;;;;;;;;;;;;8.47;36.45;100651.44;5315552;27;19946;-87
2021/03/09 20:50:34;;;;;;;;;;;;;;;8.51;36.17;100654.94;5297801;27;19969;-88
2021/03/09 20:53:21;;;;;;;;;;;;;;;8.41;36.06;100653.97;5315399;27;19944;-89
2021/03/09 20:56:09;;;;;;;;;;;;;;;8.30;36.31;100648.62;5316885;27;19961;-88
2021/03/09 20:58:42;;;;;;;;;;;;;;;8.28;36.62;100645.12;5317441;27;19987;-88
2021/03/09 21:01:31;;;;;;;;;;;;;;;8.54;36.32;100639.25;5300783;27;19937;-86
2021/03/09 21:04:29;;;;;;;;;;;;;;;8.55;37.00;100641.84;5298747;27;19937;-88
2021/03/09 21:07:19;;;;;;;;;;;;;;;8.37;37.02;100641.69;5299116;27;19949;-87
2021/03/09 21:10:19;;;;;;;;;;;;;;;8.16;37.76;100639.81;5317074;27;19984;-87
2021/03/09 21:13:20;;;;;;;;;;;;;;;8.13;37.81;100637.16;5317103;27;20214;-87
2021/03/09 21:15:55;;;;;;;;;;;;;;;8.03;38.09;100640.56;5295826;27;19960;-87
2021/03/09 21:18:27;;;;;;;;;;;;;;;8.25;37.49;100639.88;5315298;27;19941;-88
2021/03/09 21:20:57;;;;;;;;;;;;;;;8.20;37.32;100631.97;5295827;27;19982;-87
2021/03/09 21:23:35;;;;;;;;;;;;;;;7.93;38.02;100635.25;5298859;27;19957;-87
2021/03/09 21:26:22;;;;;;;;;;;;;;;8.00;37.48;100645.75;5314498;27;19953;-86
2021/03/09 21:28:55;;;;;;;;;;;;;;;8.17;37.13;100634.56;5298701;27;19949;-86
2021/03/09 21:31:25;;;;;;;;;;;;;;;8.10;37.55;100642.38;5298308;27;19941;-87
2021/03/09 21:34:13;;;;;;;;;;;;;;;8.09;37.72;100638.88;5284466;27;19940;-86
2021/03/09 21:36:42;;;;;;;;;;;;;;;7.95;38.42;100632.66;5297113;27;19960;-88
2021/03/09 21:39:09;;;;;;;;;;;;;;;7.94;38.27;100636.13;5297350;27;19949;-87
2021/03/09 21:41:38;;;;;;;;;;;;;;;7.94;38.88;100637.03;5296714;27;19949;-88
2021/03/09 21:44:13;;;;;;;;;;;;;;;7.62;39.90;100638.47;5297389;27;19932;-87
2021/03/09 21:47:00;;;;;;;;;;;;;;;7.81;39.11;100629.03;5298531;27;19970;-87
2021/03/09 21:49:28;;;;;;;;;;;;;;;7.65;39.39;100633.25;5275627;27;19952;-87
2021/03/09 21:51:55;;;;;;;;;;;;;;;7.65;39.40;100643.72;5276750;27;19969;-86
2021/03/09 21:54:23;;;;;;;;;;;;;;;7.67;39.44;100647.19;5290110;27;19978;-86
2021/03/09 21:56:52;;;;;;;;;;;;;;;7.72;39.07;100646.38;5290901;27;19988;-87
2021/03/09 21:59:24;;;;;;;;;;;;;;;7.70;38.54;100640.25;5291097;27;19942;-86
2021/03/09 22:02:13;;;;;;;;;;;;;;;7.83;38.49;100643.87;5293529;27;19987;-88
2021/03/09 22:04:58;;;;;;;;;;;;;;;7.91;39.27;100642.22;5293481;27;20706;-87
2021/03/09 22:07:44;;;;;;;;;;;;;;;7.73;39.79;100642.03;5295484;27;19973;-86
2021/03/09 22:10:47;;;;;;;;;;;;;;;7.70;39.71;100644.63;5294617;27;19970;-87
2021/03/09 22:13:55;;;;;;;;;;;;;;;7.50;39.66;100645.31;5295699;27;19968;-86
2021/03/09 22:16:55;;;;;;;;;;;;;;;7.14;41.29;100648.34;5273013;27;19957;-87
2021/03/09 22:20:05;;;;;;;;;;;;;;;7.37;40.59;100645.16;5257780;27;19980;-88
2021/03/09 22:23:10;;;;;;;;;;;;;;;7.47;40.42;100645.28;5271275;27;19965;-86
2021/03/09 22:25:49;;;;;;;;;;;;;;;7.43;40.49;100648.69;5272918;27;20005;-86
2021/03/09 22:28:29;;;;;;;;;;;;;;;7.41;40.20;100641.69;5232263;27;20055;-86
2021/03/09 22:31:15;;;;;;;;;;;;;;;7.54;39.90;100640.97;5256224;27;20008;-88
2021/03/09 22:34:08;;;;;;;;;;;;;;;7.46;39.19;100640.87;5186045;27;19991;-88
2021/03/09 22:36:49;;;;;;;;;;;;;;;7.27;39.92;100642.44;5170298;27;19944;-87
2021/03/09 22:39:59;;;;;;;;;;;;;;;7.23;40.44;100634.53;5185416;27;19986;-87
2021/03/09 22:42:34;;;;;;;;;;;;;;;7.19;40.51;100646.69;5164353;27;20076;-87
2021/03/09 22:45:21;;;;;;;;;;;;;;;7.17;40.95;100642.31;5171111;27;20036;-88
2021/03/09 22:48:04;;;;;;;;;;;;;;;7.31;40.40;100635.50;5185588;27;19948;-88
2021/03/09 22:50:45;;;;;;;;;;;;;;;7.35;39.99;100641.63;5186854;27;19967;-87
2021/03/09 22:53:37;;;;;;;;;;;;;;;7.27;40.04;100645.06;5204357;27;19958;-87
2021/03/09 22:56:34;;;;;;;;;;;;;;;6.98;40.40;100647.31;5227893;27;20103;-86
2021/03/09 22:59:25;;;;;;;;;;;;;;;7.33;39.72;100639.03;5224528;27;19962;-86
2021/03/09 23:02:09;;;;;;;;;;;;;;;7.26;40.26;100643.31;5228437;27;19941;-87
2021/03/09 23:04:52;;;;;;;;;;;;;;;7.57;40.29;100627.06;5228944;27;19943;-88
2021/03/09 23:07:33;;;;;;;;;;;;;;;7.45;40.81;100633.03;5229204;27;19946;-88
2021/03/09 23:10:22;;;;;;;;;;;;;;;7.19;40.21;100633.63;5228214;27;20016;-87
2021/03/09 23:13:06;;;;;;;;;;;;;;;7.17;41.20;100640.56;5229411;27;19991;-87
2021/03/09 23:16:13;;;;;;;;;;;;;;;7.29;40.88;100637.22;5227785;27;19950;-87
2021/03/09 23:19:09;;;;;;;;;;;;;;;7.31;41.07;100639.84;5228858;27;19953;-87
2021/03/09 23:22:32;;;;;;;;;;;;;;;6.87;42.95;100637.56;5227946;27;19969;-86
2021/03/09 23:25:11;;;;;;;;;;;;;;;7.05;41.16;100636.06;5227795;27;19938;-87
2021/03/09 23:27:47;;;;;;;;;;;;;;;7.09;40.40;100638.72;5212210;27;19945;-86
2021/03/09 23:30:59;;;;;;;;;;;;;;;7.01;41.13;100636.03;5226724;27;19946;-86
2021/03/09 23:33:44;;;;;;;;;;;;;;;7.01;41.41;100642.12;5228989;27;19966;-87
2021/03/09 23:36:18;;;;;;;;;;;;;;;7.22;41.46;100638.88;5228698;27;20724;-86
2021/03/09 23:38:48;;;;;;;;;;;;;;;7.24;40.96;100649.38;5229098;27;19963;-86
2021/03/09 23:41:42;;;;;;;;;;;;;;;7.30;40.45;100639.00;5223860;27;19950;-88
2021/03/09 23:47:50;;;;;;;;;;;;;;;6.97;40.91;100644.66;5227855;27;19938;-86
2021/03/09 23:50:34;;;;;;;;;;;;;;;6.77;41.99;100644.41;5226691;27;19943;-87
2021/03/09 23:53:08;;;;;;;;;;;;;;;6.90;41.45;100643.72;5227869;27;19977;-86
2021/03/09 23:55:51;;;;;;;;;;;;;;;6.91;40.86;100653.31;5227680;27;19979;-86
2021/03/09 23:58:30;;;;;;;;;;;;;;;6.90;40.69;100662.00;5226865;27;19934;-88
